RYR2WR EDJA-LEPA
Flight info
| Callsign | RYR2WR |
|---|---|
| Flight time | N/A |
| Altitude | 37000 |
| Route | UMTEX1A UMTEX Y100 TRA DCT LUTIX DCT BENOT DCT NEMOS DCT GEVEA DCT INCUS DCT BALSI DCT RETNO DCT TUPOX DCT MTG DCT DIVKO DCT VATIR DCT PIVUS DCT BODEQ DCT VERSO L129 LUNIK |
| Aircraft | A320/M-SDE3FGHIRWY/LB1 |
Departure
| Time | 2026-04-10 10:56 |
|---|---|
| Airport | Memmingen Allgau Airport (EDJA) |
Arrival
| Time | N/A |
|---|---|
| Airport | Palma de Mallorca Airport (LEPA) |
| Time | Latitude | Longitude | Altitude | Speed | Heading |
|---|---|---|---|---|---|
| 2026-04-10 10:18 | 47.98868 | 10.23239 | 2079 ft | 0 kts | 49° |
| 2026-04-10 10:19 | 47.98869 | 10.23241 | 2080 ft | 1 kts | 49° |
| 2026-04-10 10:20 | 47.98875 | 10.23250 | 2080 ft | 2 kts | 49° |
| 2026-04-10 10:20 | 47.98883 | 10.23265 | 2080 ft | 2 kts | 49° |
| 2026-04-10 10:20 | 47.98869 | 10.23241 | 2080 ft | 0 kts | 49° |
| 2026-04-10 10:21 | 47.98868 | 10.23239 | 2080 ft | 0 kts | 49° |
| 2026-04-10 10:21 | 47.98872 | 10.23244 | 2080 ft | 0 kts | 45° |
| 2026-04-10 10:22 | 47.98869 | 10.23240 | 2080 ft | 0 kts | 49° |
| 2026-04-10 10:24 | 47.98868 | 10.23239 | 2081 ft | 0 kts | 49° |
| 2026-04-10 10:26 | 47.98869 | 10.23240 | 2080 ft | 0 kts | 49° |
| 2026-04-10 10:46 | 47.98863 | 10.23230 | 2076 ft | 3 kts | 36° |
| 2026-04-10 10:46 | 47.98848 | 10.23223 | 2079 ft | 3 kts | 348° |
| 2026-04-10 10:47 | 47.98829 | 10.23229 | 2078 ft | 3 kts | 355° |
| 2026-04-10 10:47 | 47.98817 | 10.23228 | 2079 ft | 3 kts | 53° |
| 2026-04-10 10:47 | 47.98811 | 10.23211 | 2080 ft | 2 kts | 70° |
| 2026-04-10 10:47 | 47.98806 | 10.23189 | 2080 ft | 1 kts | 70° |
| 2026-04-10 10:48 | 47.98805 | 10.23185 | 2080 ft | 0 kts | 70° |
| 2026-04-10 10:50 | 47.98808 | 10.23198 | 2080 ft | 2 kts | 70° |
| 2026-04-10 10:50 | 47.98816 | 10.23230 | 2080 ft | 4 kts | 70° |
| 2026-04-10 10:51 | 47.98829 | 10.23280 | 2080 ft | 8 kts | 68° |
| 2026-04-10 10:51 | 47.98856 | 10.23387 | 2081 ft | 12 kts | 70° |
| 2026-04-10 10:51 | 47.98878 | 10.23489 | 2080 ft | 14 kts | 73° |
| 2026-04-10 10:51 | 47.98905 | 10.23609 | 2072 ft | 20 kts | 71° |
| 2026-04-10 10:52 | 47.98910 | 10.23682 | 2076 ft | 0 kts | 102° |
| 2026-04-10 10:52 | 47.98892 | 10.23719 | 2077 ft | 11 kts | 136° |
| 2026-04-10 10:52 | 47.98835 | 10.23785 | 2075 ft | 13 kts | 133° |
| 2026-04-10 10:52 | 47.98858 | 10.23868 | 2076 ft | 10 kts | 57° |
| 2026-04-10 10:53 | 47.98905 | 10.23981 | 2073 ft | 15 kts | 60° |
| 2026-04-10 10:53 | 47.98962 | 10.24140 | 2071 ft | 19 kts | 62° |
| 2026-04-10 10:53 | 47.99034 | 10.24324 | 2068 ft | 22 kts | 57° |
| 2026-04-10 10:53 | 47.99088 | 10.24463 | 2068 ft | 25 kts | 60° |
| 2026-04-10 10:54 | 47.99173 | 10.24688 | 2067 ft | 23 kts | 59° |
| 2026-04-10 10:54 | 47.99257 | 10.24903 | 2065 ft | 26 kts | 61° |
| 2026-04-10 10:54 | 47.99336 | 10.25094 | 2062 ft | 29 kts | 59° |
| 2026-04-10 10:54 | 47.99433 | 10.25368 | 2058 ft | 28 kts | 74° |
| 2026-04-10 10:55 | 47.99488 | 10.25566 | 2057 ft | 17 kts | 54° |
| 2026-04-10 10:55 | 47.99507 | 10.25555 | 2057 ft | 0 kts | 243° |
| 2026-04-10 10:55 | 47.99497 | 10.25518 | 2057 ft | 11 kts | 245° |
| 2026-04-10 10:55 | 47.99406 | 10.25280 | 2059 ft | 55 kts | 239° |
| 2026-04-10 10:56 | 47.99204 | 10.24761 | 2067 ft | 99 kts | 240° |
| 2026-04-10 10:56 | 47.98756 | 10.23610 | 2086 ft | 147 kts | 242° |
| 2026-04-10 10:56 | 47.98475 | 10.22872 | 2388 ft | 143 kts | 242° |
| 2026-04-10 10:56 | 47.97966 | 10.21667 | 3072 ft | 140 kts | 238° |
| 2026-04-10 10:57 | 47.97405 | 10.20472 | 3482 ft | 146 kts | 237° |
| 2026-04-10 10:57 | 47.96818 | 10.19159 | 3724 ft | 162 kts | 243° |
| 2026-04-10 10:57 | 47.96225 | 10.17582 | 3859 ft | 189 kts | 244° |
| 2026-04-10 10:57 | 47.95784 | 10.16393 | 4019 ft | 206 kts | 243° |
| 2026-04-10 10:58 | 47.94945 | 10.14163 | 4430 ft | 234 kts | 243° |
| 2026-04-10 10:58 | 47.94094 | 10.11950 | 4951 ft | 255 kts | 243° |
| 2026-04-10 10:58 | 47.93185 | 10.09640 | 5806 ft | 260 kts | 243° |
| 2026-04-10 10:58 | 47.92360 | 10.07268 | 6823 ft | 254 kts | 256° |
| 2026-04-10 10:59 | 47.91966 | 10.04713 | 7760 ft | 253 kts | 261° |
| 2026-04-10 10:59 | 47.91616 | 10.02144 | 8681 ft | 253 kts | 262° |
| 2026-04-10 10:59 | 47.91272 | 9.99570 | 9610 ft | 254 kts | 262° |
| 2026-04-10 10:59 | 47.91019 | 9.97677 | 10243 ft | 256 kts | 262° |
| 2026-04-10 11:00 | 47.90655 | 9.94956 | 10563 ft | 278 kts | 262° |
| 2026-04-10 11:00 | 47.90262 | 9.92019 | 10842 ft | 297 kts | 262° |
| 2026-04-10 11:00 | 47.89845 | 9.88952 | 11453 ft | 304 kts | 261° |
| 2026-04-10 11:00 | 47.89416 | 9.85843 | 12161 ft | 309 kts | 261° |
| 2026-04-10 11:01 | 47.88913 | 9.83067 | 12785 ft | 315 kts | 253° |
| 2026-04-10 11:01 | 47.88136 | 9.79997 | 13501 ft | 319 kts | 253° |
| 2026-04-10 11:01 | 47.87359 | 9.76887 | 14187 ft | 322 kts | 253° |
| 2026-04-10 11:01 | 47.86578 | 9.73746 | 14847 ft | 324 kts | 252° |
| 2026-04-10 11:02 | 47.85791 | 9.70586 | 15500 ft | 327 kts | 253° |
| 2026-04-10 11:02 | 47.84994 | 9.67395 | 16117 ft | 330 kts | 253° |
| 2026-04-10 11:02 | 47.84189 | 9.64173 | 16723 ft | 334 kts | 253° |
| 2026-04-10 11:02 | 47.83939 | 9.63117 | 16920 ft | 334 kts | 256° |
| 2026-04-10 11:03 | 47.83371 | 9.59166 | 17632 ft | 336 kts | 263° |
| 2026-04-10 11:03 | 47.82974 | 9.55723 | 18236 ft | 339 kts | 263° |
| 2026-04-10 11:03 | 47.82560 | 9.52247 | 18782 ft | 343 kts | 263° |
| 2026-04-10 11:03 | 47.82135 | 9.48742 | 19358 ft | 346 kts | 263° |
| 2026-04-10 11:04 | 47.81562 | 9.44058 | 20170 ft | 349 kts | 263° |
| 2026-04-10 11:04 | 47.81267 | 9.41652 | 20578 ft | 350 kts | 264° |
| 2026-04-10 11:04 | 47.80830 | 9.38075 | 21179 ft | 353 kts | 264° |
| 2026-04-10 11:04 | 47.80391 | 9.34471 | 21721 ft | 355 kts | 265° |
| 2026-04-10 11:05 | 47.79758 | 9.29269 | 22505 ft | 359 kts | 265° |
| 2026-04-10 11:05 | 47.79292 | 9.25458 | 23130 ft | 360 kts | 265° |
| 2026-04-10 11:05 | 47.78839 | 9.21782 | 23684 ft | 363 kts | 266° |
| 2026-04-10 11:06 | 47.78606 | 9.19901 | 23906 ft | 364 kts | 266° |
| 2026-04-10 11:06 | 47.78147 | 9.16192 | 24353 ft | 366 kts | 266° |
| 2026-04-10 11:06 | 47.77692 | 9.12511 | 24782 ft | 368 kts | 266° |
| 2026-04-10 11:06 | 47.77230 | 9.08762 | 25225 ft | 369 kts | 266° |
| 2026-04-10 11:07 | 47.76765 | 9.04999 | 25649 ft | 371 kts | 266° |
| 2026-04-10 11:07 | 47.76295 | 9.01212 | 26061 ft | 373 kts | 266° |
| 2026-04-10 11:07 | 47.75820 | 8.97410 | 26465 ft | 376 kts | 266° |
| 2026-04-10 11:07 | 47.75338 | 8.93578 | 26860 ft | 378 kts | 265° |
| 2026-04-10 11:08 | 47.74850 | 8.89728 | 27255 ft | 380 kts | 265° |
| 2026-04-10 11:08 | 47.74358 | 8.85864 | 27628 ft | 381 kts | 265° |
| 2026-04-10 11:08 | 47.73863 | 8.81982 | 28022 ft | 383 kts | 265° |
| 2026-04-10 11:08 | 47.73366 | 8.78075 | 28436 ft | 385 kts | 265° |
| 2026-04-10 11:09 | 47.72867 | 8.74152 | 28827 ft | 387 kts | 265° |
| 2026-04-10 11:09 | 47.72366 | 8.70209 | 29219 ft | 389 kts | 265° |
| 2026-04-10 11:09 | 47.71860 | 8.66243 | 29601 ft | 392 kts | 265° |
| 2026-04-10 11:09 | 47.71349 | 8.62253 | 29970 ft | 394 kts | 265° |
| 2026-04-10 11:10 | 47.70840 | 8.58296 | 30309 ft | 396 kts | 265° |
| 2026-04-10 11:10 | 47.70373 | 8.54693 | 30592 ft | 398 kts | 265° |
| 2026-04-10 11:10 | 47.69846 | 8.50642 | 30932 ft | 399 kts | 265° |
| 2026-04-10 11:10 | 47.69257 | 8.46611 | 31278 ft | 403 kts | 260° |
| 2026-04-10 11:11 | 47.68235 | 8.42694 | 31614 ft | 413 kts | 251° |
| 2026-04-10 11:11 | 47.66714 | 8.39027 | 31952 ft | 423 kts | 242° |
| 2026-04-10 11:11 | 47.64988 | 8.35484 | 32316 ft | 424 kts | 242° |
| 2026-04-10 11:11 | 47.63260 | 8.31933 | 32670 ft | 424 kts | 242° |
| 2026-04-10 11:12 | 47.61558 | 8.28427 | 33037 ft | 425 kts | 243° |
| 2026-04-10 11:12 | 47.59831 | 8.24869 | 33417 ft | 425 kts | 243° |
| 2026-04-10 11:12 | 47.58078 | 8.21262 | 33802 ft | 426 kts | 243° |
| 2026-04-10 11:12 | 47.56370 | 8.17749 | 34167 ft | 426 kts | 243° |
| 2026-04-10 11:13 | 47.54636 | 8.14188 | 34509 ft | 427 kts | 243° |
| 2026-04-10 11:13 | 47.52898 | 8.10629 | 34865 ft | 426 kts | 243° |
| 2026-04-10 11:13 | 47.51163 | 8.07072 | 35191 ft | 426 kts | 243° |
| 2026-04-10 11:13 | 47.49429 | 8.03523 | 35489 ft | 426 kts | 243° |
| 2026-04-10 11:14 | 47.47691 | 7.99968 | 35807 ft | 426 kts | 243° |
| 2026-04-10 11:14 | 47.45951 | 7.96416 | 36131 ft | 426 kts | 243° |
| 2026-04-10 11:14 | 47.44212 | 7.92877 | 36450 ft | 425 kts | 243° |
| 2026-04-10 11:14 | 47.42473 | 7.89348 | 36771 ft | 425 kts | 243° |
| 2026-04-10 11:15 | 47.40735 | 7.85822 | 37051 ft | 425 kts | 243° |
| 2026-04-10 11:15 | 47.39911 | 7.84151 | 37092 ft | 425 kts | 243° |
| 2026-04-10 11:15 | 47.36416 | 7.77066 | 37120 ft | 427 kts | 243° |
| 2026-04-10 11:16 | 47.33766 | 7.71712 | 37122 ft | 428 kts | 242° |
| 2026-04-10 11:16 | 47.30244 | 7.64613 | 37122 ft | 429 kts | 242° |
| 2026-04-10 11:17 | 47.26749 | 7.57567 | 37114 ft | 429 kts | 243° |
| 2026-04-10 11:17 | 47.23220 | 7.50479 | 37105 ft | 429 kts | 242° |
| 2026-04-10 11:18 | 47.19665 | 7.43376 | 37095 ft | 431 kts | 242° |
| 2026-04-10 11:18 | 47.16102 | 7.36281 | 37113 ft | 432 kts | 241° |
| 2026-04-10 11:19 | 47.12881 | 7.30175 | 37106 ft | 434 kts | 239° |
| 2026-04-10 11:19 | 47.09077 | 7.23267 | 37116 ft | 435 kts | 239° |
| 2026-04-10 11:20 | 47.05267 | 7.16372 | 37140 ft | 435 kts | 239° |
| 2026-04-10 11:20 | 47.01492 | 7.09460 | 37123 ft | 434 kts | 239° |
| 2026-04-10 11:21 | 46.97717 | 7.02552 | 37123 ft | 434 kts | 239° |
| 2026-04-10 11:21 | 46.93930 | 6.95647 | 37087 ft | 435 kts | 239° |
| 2026-04-10 11:22 | 46.90682 | 6.90110 | 37107 ft | 443 kts | 230° |
| 2026-04-10 11:22 | 46.85895 | 6.84304 | 37120 ft | 448 kts | 226° |
| 2026-04-10 11:23 | 46.81044 | 6.78556 | 37119 ft | 449 kts | 226° |
| 2026-04-10 11:23 | 46.76206 | 6.72809 | 37098 ft | 449 kts | 226° |
| 2026-04-10 11:24 | 46.72283 | 6.68157 | 37096 ft | 449 kts | 226° |
| 2026-04-10 11:24 | 46.67814 | 6.62870 | 37108 ft | 449 kts | 226° |
| 2026-04-10 11:25 | 46.62955 | 6.57127 | 37111 ft | 450 kts | 226° |
| 2026-04-10 11:25 | 46.58091 | 6.51389 | 37115 ft | 450 kts | 226° |
| 2026-04-10 11:26 | 46.53209 | 6.45656 | 37099 ft | 450 kts | 226° |
| 2026-04-10 11:26 | 46.48359 | 6.39976 | 37110 ft | 450 kts | 226° |
| 2026-04-10 11:27 | 46.43476 | 6.34269 | 37117 ft | 450 kts | 226° |
| 2026-04-10 11:27 | 46.38625 | 6.28608 | 37097 ft | 450 kts | 225° |
| 2026-04-10 11:28 | 46.35019 | 6.24410 | 37113 ft | 450 kts | 225° |
| 2026-04-10 11:28 | 46.30137 | 6.18732 | 37124 ft | 450 kts | 225° |
| 2026-04-10 11:29 | 46.24770 | 6.13893 | 37127 ft | 464 kts | 208° |
| 2026-04-10 11:29 | 46.21671 | 6.12461 | 37127 ft | 472 kts | 197° |
| 2026-04-10 11:29 | 46.18419 | 6.11674 | 37115 ft | 475 kts | 193° |
| 2026-04-10 11:30 | 46.13491 | 6.10597 | 37120 ft | 475 kts | 194° |
| 2026-04-10 11:30 | 46.07633 | 6.09292 | 37124 ft | 475 kts | 194° |
| 2026-04-10 11:31 | 46.01091 | 6.07831 | 37127 ft | 475 kts | 194° |
| 2026-04-10 11:31 | 45.94558 | 6.06377 | 37122 ft | 475 kts | 194° |
| 2026-04-10 11:32 | 45.88022 | 6.04932 | 37128 ft | 474 kts | 193° |
| 2026-04-10 11:32 | 45.84838 | 6.04262 | 37104 ft | 453 kts | 193° |
| 2026-04-10 11:32 | 45.81766 | 6.03619 | 37109 ft | 438 kts | 194° |
| 2026-04-10 11:33 | 45.78800 | 6.02984 | 37106 ft | 426 kts | 194° |
| 2026-04-10 11:33 | 45.77065 | 6.02608 | 37108 ft | 421 kts | 194° |
| 2026-04-10 11:33 | 45.70903 | 6.01255 | 37105 ft | 416 kts | 194° |
| 2026-04-10 11:34 | 45.65214 | 6.00007 | 37109 ft | 410 kts | 194° |
| 2026-04-10 11:34 | 45.59614 | 5.98773 | 37108 ft | 404 kts | 194° |
| 2026-04-10 11:35 | 45.54106 | 5.97557 | 37112 ft | 397 kts | 194° |
| 2026-04-10 11:35 | 45.48695 | 5.96365 | 37108 ft | 390 kts | 194° |
| 2026-04-10 11:36 | 45.43870 | 5.95113 | 37101 ft | 381 kts | 198° |
| 2026-04-10 11:36 | 45.38723 | 5.93459 | 36801 ft | 380 kts | 200° |
| 2026-04-10 11:37 | 45.33806 | 5.91594 | 37391 ft | 348 kts | 198° |
| 2026-04-10 11:37 | 45.29030 | 5.90419 | 36635 ft | 363 kts | 194° |